createdAt,value
2023-02-18T00:00:13.717Z,9.16
2023-02-18T00:01:13.984Z,15.36
2023-02-18T00:02:13.187Z,9.44
2023-02-18T00:03:13.607Z,9.48
2023-02-18T00:04:13.618Z,17.52
2023-02-18T00:05:13.797Z,12.28
2023-02-18T00:06:13.852Z,18.00
2023-02-18T00:07:13.970Z,13.00
2023-02-18T00:08:13.254Z,18.52
2023-02-18T00:09:13.369Z,20.72
2023-02-18T00:10:13.223Z,34.92
2023-02-18T00:11:13.271Z,27.20
2023-02-18T00:12:13.364Z,18.08
2023-02-18T00:13:13.506Z,22.28
2023-02-18T00:14:13.670Z,13.80
2023-02-18T00:15:13.815Z,15.80
2023-02-18T00:16:13.878Z,22.56
2023-02-18T00:17:13.004Z,21.48
2023-02-18T00:18:13.217Z,20.56
2023-02-18T00:19:13.139Z,17.40
2023-02-18T00:20:13.026Z,20.36
2023-02-18T00:21:12.968Z,26.80
2023-02-18T00:22:13.036Z,25.08
2023-02-18T00:23:13.119Z,24.88
2023-02-18T00:24:13.093Z,29.52
2023-02-18T00:25:13.262Z,18.28
2023-02-18T00:26:13.267Z,11.28
2023-02-18T00:27:13.277Z,27.12
2023-02-18T00:28:13.301Z,18.60
2023-02-18T00:29:13.249Z,21.04
2023-02-18T00:30:13.358Z,23.64
2023-02-18T00:31:13.608Z,23.56
2023-02-18T00:32:13.712Z,21.48
2023-02-18T00:34:03.756Z,34.56
2023-02-18T00:35:12.972Z,44.82
2023-02-18T00:36:12.827Z,19.16
2023-02-18T00:37:13.783Z,22.72
2023-02-18T00:38:13.793Z,30.48
2023-02-18T00:39:13.831Z,22.24
2023-02-18T00:40:14.021Z,27.40
2023-02-18T00:41:13.204Z,34.52
2023-02-18T00:42:13.175Z,32.12
2023-02-18T00:43:13.088Z,40.52
2023-02-18T00:44:13.298Z,25.40
2023-02-18T00:45:13.328Z,26.20
2023-02-18T00:46:13.412Z,23.08
2023-02-18T00:47:13.808Z,30.16
2023-02-18T00:48:13.976Z,53.08
2023-02-18T00:49:13.041Z,45.40
2023-02-18T00:50:12.906Z,44.32
2023-02-18T00:51:12.889Z,33.16
2023-02-18T00:52:12.842Z,36.76
2023-02-18T00:53:13.892Z,50.56
2023-02-18T00:54:12.827Z,42.76
2023-02-18T00:55:13.962Z,32.76
2023-02-18T00:56:13.423Z,26.52
2023-02-18T00:57:13.565Z,55.44
2023-02-18T00:58:13.427Z,45.44
2023-02-18T00:59:13.410Z,32.08
2023-02-18T01:00:13.444Z,39.68
2023-02-18T01:01:13.404Z,44.12
2023-02-18T01:02:13.354Z,58.88
2023-02-18T01:03:13.609Z,32.48
2023-02-18T01:04:13.658Z,24.64
2023-02-18T01:05:13.761Z,37.20
2023-02-18T01:06:14.064Z,44.76
2023-02-18T01:07:13.016Z,33.60
2023-02-18T01:08:12.930Z,38.60
2023-02-18T01:09:12.824Z,33.32
2023-02-18T01:10:14.164Z,33.76
2023-02-18T01:11:13.190Z,38.36
2023-02-18T01:12:13.251Z,30.28
2023-02-18T01:13:13.605Z,15.40
2023-02-18T01:14:14.294Z,19.20
2023-02-18T01:15:13.421Z,29.40
2023-02-18T01:16:13.468Z,29.88
2023-02-18T01:17:13.389Z,23.80
2023-02-18T01:18:13.302Z,32.08
2023-02-18T01:19:13.477Z,24.36
2023-02-18T01:20:14.020Z,8.64
2023-02-18T01:21:13.018Z,26.80
2023-02-18T01:22:13.193Z,21.64
2023-02-18T01:23:13.094Z,34.76
2023-02-18T01:24:13.404Z,17.80
2023-02-18T01:25:13.308Z,25.68
2023-02-18T01:26:13.653Z,36.56
2023-02-18T01:27:13.609Z,55.16
2023-02-18T01:28:13.498Z,24.60
2023-02-18T01:29:13.817Z,29.08
2023-02-18T01:30:13.823Z,21.15
2023-02-18T01:31:14.288Z,20.84
2023-02-18T01:32:13.528Z,28.76
2023-02-18T01:33:13.710Z,31.68
2023-02-18T01:34:13.761Z,19.24
2023-02-18T01:35:13.853Z,37.32
2023-02-18T01:36:13.783Z,32.28
2023-02-18T01:37:13.732Z,22.80
2023-02-18T01:38:13.790Z,33.68
2023-02-18T01:39:14.036Z,22.56
2023-02-18T01:40:12.930Z,29.80
2023-02-18T01:41:12.934Z,25.80
2023-02-18T01:42:13.444Z,39.28
2023-02-18T01:43:13.360Z,41.60
2023-02-18T01:44:13.278Z,23.48
2023-02-18T01:45:13.277Z,19.16
2023-02-18T01:46:13.337Z,21.84
2023-02-18T01:47:13.246Z,30.24
2023-02-18T01:48:13.538Z,44.88
2023-02-18T01:49:19.138Z,34.18
2023-02-18T01:50:13.228Z,25.68
2023-02-18T01:51:18.521Z,35.52
2023-02-18T01:53:13.753Z,25.36
2023-02-18T01:54:13.687Z,16.48
2023-02-18T01:55:13.701Z,13.04
2023-02-18T01:56:13.656Z,17.36
2023-02-18T01:57:13.847Z,25.84
2023-02-18T01:58:13.756Z,39.24
2023-02-18T01:59:13.950Z,26.04
2023-02-18T02:00:18.192Z,38.88
2023-02-18T02:01:13.343Z,37.68
2023-02-18T02:02:13.424Z,29.84
2023-02-18T02:03:13.355Z,24.56
2023-02-18T02:04:13.322Z,19.76
2023-02-18T02:05:13.522Z,22.52
2023-02-18T02:06:13.458Z,24.80
2023-02-18T02:07:13.371Z,28.92
2023-02-18T02:08:13.436Z,19.44
2023-02-18T02:09:13.366Z,27.76
2023-02-18T02:10:13.199Z,35.94
2023-02-18T02:11:13.120Z,21.36
2023-02-18T02:12:13.027Z,29.76
2023-02-18T02:13:12.948Z,35.28
2023-02-18T02:14:12.940Z,39.92
2023-02-18T02:15:13.272Z,27.44
2023-02-18T02:16:13.600Z,13.84
2023-02-18T02:17:13.884Z,18.00
2023-02-18T02:18:13.227Z,21.84
2023-02-18T02:19:23.545Z,30.92
2023-02-18T02:20:13.509Z,35.04
2023-02-18T02:21:13.521Z,8.64
2023-02-18T02:22:14.066Z,18.68
2023-02-18T02:23:13.127Z,24.36
2023-02-18T02:24:13.126Z,17.60
2023-02-18T02:25:13.233Z,13.44
2023-02-18T02:26:13.156Z,18.72
2023-02-18T02:27:13.097Z,16.68
2023-02-18T02:28:13.168Z,13.12
2023-02-18T02:29:13.113Z,10.72
2023-02-18T02:30:13.280Z,15.32
2023-02-18T02:31:13.696Z,24.20
2023-02-18T02:32:13.699Z,20.28
2023-02-18T02:33:13.826Z,18.08
2023-02-18T02:34:13.966Z,24.80
2023-02-18T02:35:12.904Z,35.52
2023-02-18T02:36:12.816Z,12.56
2023-02-18T02:37:13.923Z,22.12
2023-02-18T02:38:12.899Z,27.32
2023-02-18T02:39:12.928Z,21.96
2023-02-18T02:40:12.804Z,13.88
2023-02-18T02:41:14.036Z,31.80
2023-02-18T02:42:13.008Z,13.04
2023-02-18T02:43:13.157Z,17.40
2023-02-18T02:44:13.155Z,23.96
2023-02-18T02:45:13.049Z,34.48
2023-02-18T02:46:13.393Z,30.52
2023-02-18T02:47:14.428Z,23.48
2023-02-18T02:48:14.161Z,21.40
2023-02-18T02:49:13.190Z,14.76
2023-02-18T02:50:13.383Z,28.04
2023-02-18T02:51:13.358Z,22.80
2023-02-18T02:52:13.398Z,24.12
2023-02-18T02:53:13.405Z,18.20
2023-02-18T02:54:13.288Z,22.68
2023-02-18T02:55:13.287Z,23.80
2023-02-18T02:56:13.364Z,26.64
2023-02-18T02:57:13.328Z,29.00
2023-02-18T02:58:13.505Z,21.68
2023-02-18T02:59:13.456Z,21.60
2023-02-18T03:00:14.500Z,21.64
2023-02-18T03:01:13.755Z,19.68
2023-02-18T03:02:13.875Z,22.16
2023-02-18T03:03:14.325Z,12.92
2023-02-18T03:04:13.677Z,9.76
2023-02-18T03:05:13.597Z,13.56
2023-02-18T03:06:13.488Z,14.12
2023-02-18T03:07:13.616Z,17.20
2023-02-18T03:08:13.542Z,19.16
2023-02-18T03:09:13.510Z,23.08
2023-02-18T03:10:13.465Z,28.52
2023-02-18T03:11:13.465Z,18.72
2023-02-18T03:12:13.403Z,19.96
2023-02-18T03:13:13.465Z,13.40
2023-02-18T03:14:13.576Z,20.56
2023-02-18T03:15:13.635Z,17.40
2023-02-18T03:16:13.821Z,13.88
2023-02-18T03:17:13.886Z,20.88
2023-02-18T03:18:14.317Z,19.80
2023-02-18T03:19:13.253Z,23.52
2023-02-18T03:20:13.274Z,14.84
2023-02-18T03:21:13.236Z,12.72
2023-02-18T03:22:13.268Z,23.36
2023-02-18T03:23:13.605Z,18.68
2023-02-18T03:24:13.709Z,19.48
2023-02-18T03:25:13.989Z,21.32
2023-02-18T03:26:13.105Z,14.56
2023-02-18T03:27:13.171Z,17.36
2023-02-18T03:28:13.460Z,18.79
2023-02-18T03:29:13.816Z,17.96
2023-02-18T03:30:13.985Z,27.88
2023-02-18T03:31:12.952Z,20.33
2023-02-18T03:32:18.441Z,13.00
2023-02-18T03:33:13.754Z,16.08
2023-02-18T03:34:13.685Z,22.40
2023-02-18T03:35:13.690Z,22.44
2023-02-18T03:36:14.106Z,18.28
2023-02-18T03:37:12.976Z,19.36
2023-02-18T03:38:14.173Z,18.24
2023-02-18T03:39:13.492Z,18.84
2023-02-18T03:40:13.451Z,18.76
2023-02-18T03:41:13.442Z,10.84
2023-02-18T03:42:13.723Z,12.60
2023-02-18T03:43:13.604Z,15.16
2023-02-18T03:44:13.807Z,15.92
2023-02-18T03:45:13.774Z,23.40
2023-02-18T03:46:13.695Z,15.16
2023-02-18T03:47:13.859Z,19.12
2023-02-18T03:48:13.854Z,20.92
2023-02-18T03:49:13.809Z,17.84
2023-02-18T03:50:13.737Z,21.60
2023-02-18T03:51:14.146Z,27.00
2023-02-18T03:52:13.408Z,16.64
2023-02-18T03:53:13.383Z,10.16
2023-02-18T03:54:13.467Z,16.48
2023-02-18T03:55:13.563Z,13.48
2023-02-18T03:56:13.888Z,14.44
2023-02-18T03:57:13.910Z,19.56
2023-02-18T03:58:12.757Z,10.64
2023-02-18T03:59:14.029Z,17.88
2023-02-18T04:00:13.119Z,22.04
2023-02-18T04:01:13.110Z,13.64
2023-02-18T04:02:13.175Z,16.96
2023-02-18T04:03:13.099Z,18.24
2023-02-18T04:04:13.271Z,10.44
2023-02-18T04:05:13.456Z,13.36
2023-02-18T04:06:13.678Z,13.88
2023-02-18T04:07:13.811Z,17.76
2023-02-18T04:08:13.828Z,21.76
2023-02-18T04:09:13.823Z,13.60
2023-02-18T04:10:14.011Z,20.04
2023-02-18T04:11:12.946Z,19.08
2023-02-18T04:12:12.968Z,20.68
2023-02-18T04:13:13.021Z,19.08
2023-02-18T04:14:13.254Z,14.20
2023-02-18T04:15:13.227Z,13.04
2023-02-18T04:16:13.271Z,18.88
2023-02-18T04:17:13.305Z,12.12
2023-02-18T04:18:13.366Z,14.56
2023-02-18T04:19:13.653Z,14.48
2023-02-18T04:20:13.753Z,16.04
2023-02-18T04:21:13.755Z,15.60
2023-02-18T04:22:13.717Z,12.16
2023-02-18T04:23:13.664Z,17.60
2023-02-18T04:24:13.671Z,15.76
2023-02-18T04:25:13.933Z,13.48
2023-02-18T04:26:12.860Z,12.80
2023-02-18T04:27:13.766Z,15.52
2023-02-18T04:28:13.069Z,19.88
2023-02-18T04:29:13.080Z,20.84
2023-02-18T04:30:13.171Z,13.20
2023-02-18T04:31:13.626Z,15.60
2023-02-18T04:32:14.020Z,20.12
2023-02-18T04:33:13.050Z,12.28
2023-02-18T04:34:13.535Z,13.20
2023-02-18T04:35:13.745Z,13.68
2023-02-18T04:36:13.836Z,15.08
2023-02-18T04:37:14.290Z,15.44
2023-02-18T04:38:13.153Z,13.84
2023-02-18T04:39:13.524Z,11.20
2023-02-18T04:40:13.806Z,13.60
2023-02-18T04:41:13.816Z,22.20
2023-02-18T04:42:13.663Z,17.80
2023-02-18T04:43:13.569Z,21.12
2023-02-18T04:44:13.592Z,11.48
2023-02-18T04:45:13.878Z,7.84
2023-02-18T04:46:13.382Z,12.40
2023-02-18T04:47:13.345Z,18.88
2023-02-18T04:48:13.486Z,15.76
2023-02-18T04:49:13.542Z,12.36
2023-02-18T04:50:13.532Z,18.68
2023-02-18T04:51:13.623Z,10.00
2023-02-18T04:52:14.090Z,13.72
2023-02-18T04:53:13.122Z,18.96
2023-02-18T04:54:13.324Z,17.76
2023-02-18T04:55:14.106Z,22.20
2023-02-18T04:56:13.392Z,19.60
2023-02-18T04:57:13.583Z,15.52
2023-02-18T04:58:14.040Z,12.60
2023-02-18T04:59:13.546Z,23.44
2023-02-18T05:00:13.459Z,24.00
2023-02-18T05:01:18.613Z,19.00
2023-02-18T05:02:13.576Z,19.52
2023-02-18T05:03:13.852Z,9.68
2023-02-18T05:04:12.842Z,15.32
2023-02-18T05:05:14.148Z,12.96
2023-02-18T05:06:13.216Z,15.52
2023-02-18T05:07:13.513Z,15.52
2023-02-18T05:08:13.772Z,20.16
2023-02-18T05:09:13.764Z,10.68
2023-02-18T05:10:13.702Z,17.80
2023-02-18T05:11:13.764Z,13.52
2023-02-18T05:12:13.695Z,11.72
2023-02-18T05:13:13.959Z,16.84
2023-02-18T05:14:13.231Z,19.00
2023-02-18T05:15:13.289Z,14.28
2023-02-18T05:16:13.396Z,17.44
2023-02-18T05:17:13.462Z,9.36
2023-02-18T05:18:13.460Z,12.44
2023-02-18T05:19:13.611Z,16.05
2023-02-18T05:20:13.567Z,19.72
2023-02-18T05:21:13.654Z,30.68
2023-02-18T05:22:13.584Z,17.80
2023-02-18T05:23:13.657Z,22.32
2023-02-18T05:24:13.486Z,22.72
2023-02-18T05:25:13.344Z,18.44
2023-02-18T05:26:13.249Z,21.76
2023-02-18T05:27:13.560Z,15.96
2023-02-18T05:28:13.699Z,15.64
2023-02-18T05:29:13.751Z,13.72
2023-02-18T05:30:13.863Z,22.04
2023-02-18T05:31:13.152Z,18.24
2023-02-18T05:32:13.385Z,23.28
2023-02-18T05:33:13.609Z,19.52
2023-02-18T05:34:13.957Z,15.40
2023-02-18T05:35:13.233Z,17.40
2023-02-18T05:36:13.392Z,11.24
2023-02-18T05:37:13.659Z,14.68
2023-02-18T05:38:13.763Z,22.24
2023-02-18T05:39:13.729Z,18.64
2023-02-18T05:40:13.874Z,13.08
2023-02-18T05:41:13.888Z,21.12
2023-02-18T05:42:13.088Z,19.72
2023-02-18T05:43:13.042Z,17.44
2023-02-18T05:44:12.989Z,25.68
2023-02-18T05:45:13.136Z,24.60
2023-02-18T05:46:13.064Z,15.00
2023-02-18T05:47:13.511Z,13.96
2023-02-18T05:48:13.399Z,7.00
2023-02-18T05:49:13.322Z,14.04
2023-02-18T05:50:13.226Z,13.08
2023-02-18T05:51:13.165Z,24.16
2023-02-18T05:52:12.988Z,12.16
2023-02-18T05:53:12.909Z,6.00
2023-02-18T05:54:12.829Z,13.24
2023-02-18T05:55:13.692Z,17.56
2023-02-18T05:56:13.626Z,21.68
2023-02-18T05:57:13.500Z,30.28
2023-02-18T05:58:13.408Z,35.96
2023-02-18T05:59:13.431Z,18.24
2023-02-18T06:00:13.447Z,37.88
2023-02-18T06:01:13.475Z,29.12
2023-02-18T06:02:13.406Z,33.96
2023-02-18T06:03:13.793Z,20.64
2023-02-18T06:04:13.823Z,27.41
2023-02-18T06:05:13.856Z,25.20
2023-02-18T06:06:14.083Z,19.08
2023-02-18T06:07:13.377Z,34.04
2023-02-18T06:08:13.743Z,25.80
2023-02-18T06:09:13.803Z,32.28
2023-02-18T06:10:13.679Z,22.88
2023-02-18T06:11:14.166Z,19.92
2023-02-18T06:12:13.314Z,28.80
2023-02-18T06:13:13.396Z,14.36
2023-02-18T06:14:18.519Z,27.56
2023-02-18T06:15:13.675Z,17.12
2023-02-18T06:16:13.820Z,12.16
2023-02-18T06:17:14.037Z,35.80
2023-02-18T06:18:13.432Z,35.36
2023-02-18T06:19:13.771Z,25.76
2023-02-18T06:20:13.605Z,22.12
2023-02-18T06:21:13.523Z,35.04
2023-02-18T06:22:13.566Z,37.17
2023-02-18T06:23:13.533Z,47.83
2023-02-18T06:24:13.539Z,64.80
2023-02-18T06:25:13.473Z,38.44
2023-02-18T06:26:13.997Z,41.56
2023-02-18T06:27:12.817Z,52.52
2023-02-18T06:28:13.856Z,38.08
2023-02-18T06:29:13.974Z,24.16
2023-02-18T06:30:13.063Z,32.52
2023-02-18T06:31:13.125Z,29.64
2023-02-18T06:32:13.511Z,35.56
2023-02-18T06:33:13.465Z,40.32
2023-02-18T06:34:13.417Z,44.76
2023-02-18T06:35:13.529Z,35.48
2023-02-18T06:36:13.470Z,32.84
2023-02-18T06:37:13.425Z,30.72
2023-02-18T06:38:13.619Z,30.64
2023-02-18T06:39:13.863Z,27.72
2023-02-18T06:40:13.757Z,13.16
2023-02-18T06:41:13.565Z,15.88
2023-02-18T06:42:13.680Z,24.16
2023-02-18T06:43:13.553Z,47.52
2023-02-18T06:44:13.457Z,47.24
2023-02-18T06:45:13.348Z,33.16
2023-02-18T06:46:13.615Z,27.32
2023-02-18T06:47:13.827Z,23.40
2023-02-18T06:48:14.036Z,29.80
2023-02-18T06:49:13.126Z,15.04
2023-02-18T06:50:13.017Z,18.48
2023-02-18T06:51:13.150Z,19.44
2023-02-18T06:52:13.250Z,18.64
2023-02-18T06:53:13.470Z,29.60
2023-02-18T06:54:13.581Z,31.08
2023-02-18T06:55:13.720Z,30.96
2023-02-18T06:56:13.706Z,28.94
2023-02-18T06:57:13.696Z,25.24
2023-02-18T06:58:13.722Z,21.48
2023-02-18T06:59:13.720Z,24.60
2023-02-18T07:00:13.824Z,14.72
2023-02-18T07:01:14.182Z,20.36
2023-02-18T07:02:13.329Z,19.50
2023-02-18T07:03:13.443Z,26.10
2023-02-18T07:04:13.496Z,23.28
2023-02-18T07:05:13.654Z,22.04
2023-02-18T07:06:13.577Z,26.64
2023-02-18T07:07:13.951Z,17.92
2023-02-18T07:08:13.186Z,21.64
2023-02-18T07:09:13.644Z,28.36
2023-02-18T07:10:13.791Z,16.12
2023-02-18T07:11:13.947Z,16.48
2023-02-18T07:12:18.066Z,13.12
2023-02-18T07:13:13.329Z,19.04
2023-02-18T07:14:13.303Z,44.32
2023-02-18T07:15:13.276Z,36.00
2023-02-18T07:16:13.520Z,15.24
2023-02-18T07:17:13.488Z,25.15
2023-02-18T07:18:13.424Z,26.20
2023-02-18T07:19:14.891Z,31.56
2023-02-18T07:20:13.001Z,41.36
2023-02-18T07:21:12.941Z,28.08
2023-02-18T07:22:13.063Z,25.96
2023-02-18T07:23:13.628Z,28.68
2023-02-18T07:24:13.856Z,26.84
2023-02-18T07:25:14.051Z,38.68
2023-02-18T07:26:12.969Z,33.48
2023-02-18T07:27:13.256Z,38.92
2023-02-18T07:28:13.627Z,27.28
2023-02-18T07:29:13.849Z,44.28
2023-02-18T07:30:13.788Z,40.00
2023-02-18T07:31:13.988Z,30.20
2023-02-18T07:32:18.253Z,41.16
2023-02-18T07:33:13.492Z,57.20
2023-02-18T07:34:13.660Z,38.64
2023-02-18T07:35:13.610Z,32.88
2023-02-18T07:37:13.009Z,25.08
2023-02-18T07:38:23.020Z,28.56
2023-02-18T07:39:12.962Z,26.64
2023-02-18T07:40:12.923Z,22.64
2023-02-18T07:41:13.336Z,20.88
2023-02-18T07:42:14.876Z,27.60
2023-02-18T07:43:13.065Z,25.96
2023-02-18T07:44:12.993Z,25.12
2023-02-18T07:45:13.187Z,18.52
2023-02-18T07:46:13.488Z,24.24
2023-02-18T07:47:18.521Z,25.56
2023-02-18T07:48:13.388Z,27.04
2023-02-18T07:49:14.627Z,26.84
2023-02-18T07:50:13.690Z,27.08
2023-02-18T07:51:13.572Z,32.28
2023-02-18T07:52:13.617Z,29.68
2023-02-18T07:53:13.558Z,27.84
2023-02-18T07:54:13.583Z,15.00
2023-02-18T07:55:13.530Z,15.92
2023-02-18T07:56:13.731Z,9.92
2023-02-18T07:57:13.557Z,31.88
2023-02-18T07:58:13.576Z,44.76
2023-02-18T07:59:13.479Z,43.32
2023-02-18T08:00:13.397Z,43.76
2023-02-18T08:01:18.471Z,38.04
2023-02-18T08:02:13.433Z,35.08
2023-02-18T08:03:13.594Z,34.96
2023-02-18T08:04:13.634Z,32.76
2023-02-18T08:05:13.612Z,53.36
2023-02-18T08:06:13.674Z,40.28
2023-02-18T08:07:14.161Z,53.24
2023-02-18T08:08:13.229Z,33.88
2023-02-18T08:09:13.162Z,49.04
2023-02-18T08:10:13.178Z,28.20
2023-02-18T08:11:18.989Z,41.16
2023-02-18T08:12:14.025Z,28.76
2023-02-18T08:13:12.982Z,25.20
2023-02-18T08:14:12.927Z,39.64
2023-02-18T08:15:12.960Z,36.20
2023-02-18T08:16:12.959Z,33.28
2023-02-18T08:17:12.982Z,33.80
2023-02-18T08:18:13.421Z,35.92
2023-02-18T08:19:13.803Z,34.12
2023-02-18T08:20:13.751Z,36.52
2023-02-18T08:21:13.920Z,51.20
2023-02-18T08:22:12.746Z,37.96
2023-02-18T08:23:13.778Z,52.72
2023-02-18T08:24:13.747Z,39.96
2023-02-18T08:25:24.120Z,33.72
2023-02-18T08:26:12.872Z,29.08
2023-02-18T08:27:13.973Z,34.72
2023-02-18T08:28:13.083Z,30.20
2023-02-18T08:29:13.422Z,28.80
2023-02-18T08:30:18.982Z,31.44
2023-02-18T08:31:51.530Z,27.36
2023-02-18T08:32:13.225Z,57.84
2023-02-18T08:33:13.703Z,44.56
2023-02-18T08:34:13.569Z,53.07
2023-02-18T08:35:13.517Z,41.76
2023-02-18T08:36:13.864Z,39.84
2023-02-18T08:37:54.153Z,35.88
2023-02-18T08:38:13.621Z,25.32
2023-02-18T08:39:13.594Z,33.44
2023-02-18T08:40:13.537Z,27.68
2023-02-18T08:41:13.352Z,51.72
2023-02-18T08:42:13.358Z,49.76
2023-02-18T08:43:13.373Z,32.40
2023-02-18T08:44:13.415Z,31.64
2023-02-18T08:45:13.343Z,33.72
2023-02-18T08:46:16.078Z,25.56
2023-02-18T08:48:13.728Z,26.60
2023-02-18T08:48:19.714Z,23.92
2023-02-18T08:49:13.652Z,26.84
2023-02-18T08:50:13.782Z,22.60
2023-02-18T08:51:14.014Z,23.32
2023-02-18T08:52:12.953Z,28.92
2023-02-18T08:53:13.066Z,22.56
2023-02-18T08:54:13.132Z,31.32
2023-02-18T08:55:12.962Z,33.56
2023-02-18T08:56:13.788Z,24.56
2023-02-18T08:57:13.897Z,26.64
2023-02-18T08:58:13.000Z,46.72
2023-02-18T08:59:13.061Z,40.76
2023-02-18T09:00:15.330Z,46.20
2023-02-18T09:01:13.888Z,51.76
2023-02-18T09:02:12.901Z,59.24
2023-02-18T09:03:13.072Z,31.36
2023-02-18T09:04:13.027Z,61.56
2023-02-18T09:05:13.194Z,41.12
2023-02-18T09:06:13.244Z,34.96
2023-02-18T09:07:13.128Z,37.40
2023-02-18T09:09:15.835Z,43.50
2023-02-18T09:10:14.012Z,34.76
2023-02-18T09:11:13.065Z,52.12
2023-02-18T09:12:12.996Z,51.08
2023-02-18T09:13:12.949Z,39.12
2023-02-18T09:14:44.577Z,71.76
2023-02-18T09:17:13.975Z,43.76
2023-02-18T09:18:13.270Z,40.00
2023-02-18T09:19:13.151Z,39.60
2023-02-18T09:20:13.060Z,36.32
2023-02-18T09:21:13.185Z,33.76
2023-02-18T09:22:13.245Z,28.24
2023-02-18T09:23:13.066Z,31.24
2023-02-18T09:24:13.037Z,39.44
2023-02-18T09:25:13.248Z,32.12
2023-02-18T09:26:13.200Z,43.52
2023-02-18T09:27:13.294Z,32.72
2023-02-18T09:28:13.173Z,37.56
2023-02-18T09:29:19.804Z,28.00
2023-02-18T09:30:13.918Z,51.36
2023-02-18T09:31:14.491Z,35.52
2023-02-18T09:33:13.604Z,25.28
2023-02-18T09:34:16.310Z,36.20
2023-02-18T09:35:14.601Z,33.80
2023-02-18T09:36:13.768Z,40.49
2023-02-18T09:37:14.048Z,27.88
2023-02-18T09:40:15.342Z,28.56
2023-02-18T09:41:48.089Z,25.68
2023-02-18T09:42:13.093Z,28.32
2023-02-18T09:43:15.562Z,32.96
2023-02-18T09:44:18.524Z,31.98
2023-02-18T09:45:16.454Z,31.12
2023-02-18T09:46:13.615Z,49.76
2023-02-18T09:47:13.862Z,43.40
2023-02-18T09:48:13.980Z,32.96
2023-02-18T09:49:13.005Z,32.16
2023-02-18T09:50:19.175Z,30.52
2023-02-18T09:51:13.872Z,35.52
2023-02-18T09:52:18.906Z,39.36
2023-02-18T09:53:13.460Z,37.76
2023-02-18T09:54:13.418Z,46.32
2023-02-18T09:55:13.339Z,47.92
2023-02-18T09:56:13.401Z,39.64
2023-02-18T09:57:13.458Z,35.48
2023-02-18T09:58:13.343Z,40.08
2023-02-18T09:59:13.214Z,41.20
2023-02-18T10:00:13.167Z,23.72
2023-02-18T10:01:13.216Z,28.88
2023-02-18T10:02:13.237Z,22.64
2023-02-18T10:03:13.526Z,38.32
2023-02-18T10:04:13.556Z,42.64
2023-02-18T10:05:18.757Z,44.24
2023-02-18T10:06:14.251Z,31.12
2023-02-18T10:07:54.142Z,48.72
2023-02-18T10:08:42.384Z,41.28
2023-02-18T10:09:13.673Z,35.04
2023-02-18T10:10:13.682Z,32.40
2023-02-18T10:11:14.021Z,18.96
2023-02-18T10:12:13.176Z,28.36
2023-02-18T10:13:14.931Z,40.00
2023-02-18T10:14:13.079Z,30.72
2023-02-18T10:15:13.335Z,42.40
2023-02-18T10:16:13.435Z,48.56
2023-02-18T10:17:15.372Z,27.84
2023-02-18T10:18:13.610Z,33.84
2023-02-18T10:19:41.546Z,36.84
2023-02-18T10:20:13.204Z,15.12
2023-02-18T10:21:13.475Z,22.64
2023-02-18T10:22:29.676Z,50.64
2023-02-18T10:23:13.605Z,24.48
2023-02-18T10:26:13.581Z,43.15
2023-02-18T10:27:14.634Z,44.72
2023-02-18T10:28:13.550Z,29.12
2023-02-18T10:31:14.917Z,36.48
2023-02-18T10:34:15.608Z,25.30
2023-02-18T10:35:14.312Z,27.76
2023-02-18T10:36:13.507Z,38.84
2023-02-18T10:37:14.961Z,37.96
2023-02-18T10:38:12.864Z,20.76
2023-02-18T10:39:14.033Z,32.44
2023-02-18T10:40:13.202Z,24.20
2023-02-18T10:41:13.040Z,52.08
2023-02-18T10:42:13.077Z,45.00
2023-02-18T10:43:13.324Z,59.28
2023-02-18T10:44:13.441Z,26.92
2023-02-18T10:45:13.517Z,34.92
2023-02-18T10:46:13.892Z,36.44
2023-02-18T10:47:12.984Z,31.00
2023-02-18T10:48:12.908Z,32.20
2023-02-18T10:49:13.058Z,31.16
2023-02-18T10:50:13.089Z,29.76
2023-02-18T10:51:12.958Z,20.64
2023-02-18T10:52:14.609Z,16.64
2023-02-18T10:53:14.696Z,37.56
2023-02-18T10:54:13.586Z,42.91
2023-02-18T10:55:13.715Z,40.12
2023-02-18T10:56:13.761Z,39.84
2023-02-18T10:57:13.831Z,37.96
2023-02-18T10:58:14.034Z,27.98
2023-02-18T10:59:13.117Z,21.52
2023-02-18T11:00:13.234Z,23.28
2023-02-18T11:01:13.159Z,13.48
2023-02-18T11:02:13.218Z,25.84
2023-02-18T11:03:13.480Z,15.88
2023-02-18T11:04:13.494Z,23.12
2023-02-18T11:05:13.725Z,20.36
2023-02-18T11:06:13.918Z,23.04
2023-02-18T11:07:12.869Z,28.36
2023-02-18T11:08:14.312Z,26.20
2023-02-18T11:09:13.350Z,20.24
2023-02-18T11:10:13.391Z,34.32
2023-02-18T11:11:13.404Z,29.68
2023-02-18T11:12:13.323Z,13.96
2023-02-18T11:13:13.333Z,14.56
2023-02-18T11:14:13.228Z,12.96
2023-02-18T11:15:13.471Z,24.24
2023-02-18T11:16:14.154Z,36.75
2023-02-18T11:17:13.302Z,26.28
2023-02-18T11:18:13.369Z,28.04
2023-02-18T11:19:13.381Z,23.76
2023-02-18T11:20:13.303Z,30.60
2023-02-18T11:21:13.545Z,27.88
2023-02-18T11:22:13.664Z,31.12
2023-02-18T11:23:13.743Z,26.04
2023-02-18T11:24:13.840Z,23.96
2023-02-18T11:25:13.699Z,23.32
2023-02-18T11:26:13.943Z,30.36
2023-02-18T11:27:14.646Z,22.44
2023-02-18T11:28:13.697Z,30.68
2023-02-18T11:29:13.871Z,30.08
2023-02-18T11:30:12.844Z,29.48
2023-02-18T11:31:14.123Z,42.68
2023-02-18T11:32:13.674Z,33.96
2023-02-18T11:33:15.184Z,47.92
2023-02-18T11:34:12.927Z,38.60
2023-02-18T11:35:12.931Z,37.00
2023-02-18T11:36:12.834Z,26.32
2023-02-18T11:38:13.865Z,42.96
2023-02-18T11:39:15.679Z,15.24
2023-02-18T11:42:14.721Z,39.92
2023-02-18T11:43:36.970Z,40.80
2023-02-18T11:44:13.823Z,27.92
2023-02-18T11:45:15.251Z,31.56
2023-02-18T11:46:13.973Z,39.68
2023-02-18T11:47:13.195Z,35.32
2023-02-18T11:48:13.413Z,39.20
2023-02-18T11:49:14.263Z,37.80
2023-02-18T11:50:13.657Z,46.36
2023-02-18T11:51:13.958Z,40.72
2023-02-18T11:52:44.994Z,21.36
2023-02-18T11:53:13.087Z,13.44
2023-02-18T11:54:13.574Z,17.48
2023-02-18T11:55:13.735Z,19.64
2023-02-18T11:56:13.972Z,32.48
2023-02-18T11:57:13.104Z,25.24
2023-02-18T11:58:13.145Z,19.84
2023-02-18T11:59:13.077Z,47.80
2023-02-18T12:00:13.155Z,35.60
2023-02-18T12:01:13.096Z,13.56
2023-02-18T12:02:18.353Z,11.52
2023-02-18T12:03:13.703Z,25.12
2023-02-18T12:04:13.852Z,33.32
2023-02-18T12:05:13.910Z,21.52
2023-02-18T12:06:14.272Z,26.88
2023-02-18T12:07:13.284Z,41.76
2023-02-18T12:08:13.549Z,26.24
2023-02-18T12:09:13.668Z,17.32
2023-02-18T12:10:13.750Z,13.60
2023-02-18T12:11:13.944Z,32.08
2023-02-18T12:12:13.251Z,30.28
2023-02-18T12:13:13.545Z,38.56
2023-02-18T12:14:13.687Z,36.48
2023-02-18T12:15:13.774Z,35.24
2023-02-18T12:16:13.999Z,40.28
2023-02-18T12:17:13.608Z,30.28
2023-02-18T12:18:13.968Z,41.88
2023-02-18T12:19:13.031Z,32.16
2023-02-18T12:20:13.349Z,30.16
2023-02-18T12:21:13.748Z,40.76
2023-02-18T12:22:13.891Z,47.80
2023-02-18T12:23:13.625Z,35.68
2023-02-18T12:24:13.677Z,36.32
2023-02-18T12:25:13.688Z,30.60
2023-02-18T12:26:13.885Z,26.92
2023-02-18T12:27:14.228Z,36.36
2023-02-18T12:28:13.128Z,38.36
2023-02-18T12:29:13.402Z,34.56
2023-02-18T12:30:13.553Z,30.76
2023-02-18T12:31:13.830Z,20.12
2023-02-18T12:32:14.090Z,18.84
2023-02-18T12:33:13.225Z,41.60
2023-02-18T12:34:13.227Z,39.40
2023-02-18T12:35:13.090Z,38.72
2023-02-18T12:36:13.308Z,50.80
2023-02-18T12:37:13.214Z,44.44
2023-02-18T12:38:13.254Z,60.80
2023-02-18T12:39:13.643Z,47.32
2023-02-18T12:40:13.631Z,26.76
2023-02-18T12:41:13.908Z,48.56
2023-02-18T12:42:13.354Z,46.12
2023-02-18T12:43:13.497Z,36.20
2023-02-18T12:44:13.556Z,23.60
2023-02-18T12:45:13.889Z,23.68
2023-02-18T12:46:13.088Z,28.28
2023-02-18T12:47:13.209Z,18.72
2023-02-18T12:48:13.131Z,28.40
2023-02-18T12:49:13.466Z,21.52
2023-02-18T12:50:13.653Z,26.36
2023-02-18T12:51:13.758Z,27.64
2023-02-18T12:52:13.660Z,23.28
2023-02-18T12:53:13.597Z,15.64
2023-02-18T12:54:13.567Z,17.68
2023-02-18T12:55:13.527Z,16.36
2023-02-18T12:56:13.613Z,16.60
2023-02-18T12:57:13.558Z,15.92
2023-02-18T12:58:13.630Z,20.68
2023-02-18T12:59:13.582Z,13.96
2023-02-18T13:00:13.581Z,15.12
2023-02-18T13:01:13.470Z,19.64
2023-02-18T13:02:13.357Z,12.40
2023-02-18T13:03:13.332Z,8.92
2023-02-18T13:04:13.570Z,10.24
2023-02-18T13:05:13.441Z,11.12
2023-02-18T13:06:13.871Z,13.16
2023-02-18T13:07:13.998Z,12.40
2023-02-18T13:08:13.018Z,10.48
2023-02-18T13:09:13.090Z,14.88
2023-02-18T13:10:12.997Z,16.76
2023-02-18T13:11:13.144Z,14.36